Time;durP1;ratioP1;P1;durP2;ratioP2;P2;SDS_P1;SDS_P2;PMS_P1;PMS_P2;Temp;Humidity;BMP_temperature;BMP_pressure;BME280_temperature;BME280_humidity;BME280_pressure;Samples;Min_cycle;Max_cycle;Signal;HPM_P1;HPM_P2
2023/06/25 00:05:45;;;;;;;19.97;12.43;;;;;;;;;;4892581;29;20195;-69
2023/06/25 00:12:48;;;;;;;16.70;11.37;;;;;;;;;;4896014;29;20227;-69
2023/06/25 00:19:09;;;;;;;18.67;12.30;;;;;;;;;;4933620;29;20538;-69
2023/06/25 00:25:35;;;;;;;16.90;12.27;;;;;;;;;;4933977;29;20250;-69
2023/06/25 00:32:02;;;;;;;17.53;11.97;;;;;;;;;;4933798;29;20648;-69
2023/06/25 00:43:10;;;;;;;21.00;13.13;;;;;;;;;;4948922;28;20275;-70
2023/06/25 00:57:37;;;;;;;16.30;11.63;;;;;;;;;;4949965;28;20189;-70
2023/06/25 01:04:06;;;;;;;20.00;12.10;;;;;;;;;;4949208;28;20727;-71
2023/06/25 01:10:33;;;;;;;21.03;12.43;;;;;;;;;;4933051;29;20229;-70
2023/06/25 01:17:00;;;;;;;17.40;12.20;;;;;;;;;;4933018;29;20259;-69
2023/06/25 01:23:28;;;;;;;18.57;12.33;;;;;;;;;;4932407;29;20229;-70
2023/06/25 01:34:22;;;;;;;13.73;10.93;;;;;;;;;;4854324;29;20226;-70
2023/06/25 01:44:54;;;;;;;21.07;13.10;;;;;;;;;;4882825;29;20227;-70
2023/06/25 01:59:44;;;;;;;17.03;11.50;;;;;;;;;;4932319;29;20225;-69
2023/06/25 02:06:11;;;;;;;23.00;12.87;;;;;;;;;;4932026;29;20170;-69
2023/06/25 02:12:38;;;;;;;19.10;13.20;;;;;;;;;;4970465;28;20187;-69
2023/06/25 02:19:03;;;;;;;20.00;12.30;;;;;;;;;;4986703;28;20228;-70
2023/06/25 02:25:29;;;;;;;17.30;12.80;;;;;;;;;;4986836;28;20267;-70
2023/06/25 02:31:56;;;;;;;16.63;11.87;;;;;;;;;;4987261;28;20224;-70
2023/06/25 03:11:03;;;;;;;18.63;11.40;;;;;;;;;;4950225;29;20209;-68
2023/06/25 03:17:30;;;;;;;20.63;13.30;;;;;;;;;;4950160;28;20177;-68
2023/06/25 03:23:58;;;;;;;19.67;12.23;;;;;;;;;;4949665;28;20181;-68
2023/06/25 03:30:24;;;;;;;18.17;12.60;;;;;;;;;;4911257;29;20186;-68
2023/06/25 03:36:50;;;;;;;19.43;12.83;;;;;;;;;;4911474;29;20282;-68
2023/06/25 03:43:17;;;;;;;16.07;11.90;;;;;;;;;;4911256;29;20573;-68
2023/06/25 03:49:43;;;;;;;16.23;11.27;;;;;;;;;;4911370;29;20250;-70
2023/06/25 04:00:09;;;;;;;19.90;14.13;;;;;;;;;;4923026;29;20243;-68
2023/06/25 04:10:40;;;;;;;23.13;14.67;;;;;;;;;;4952550;28;20260;-68
2023/06/25 04:17:06;;;;;;;21.07;13.40;;;;;;;;;;4965113;28;20230;-67
2023/06/25 04:23:33;;;;;;;26.80;17.80;;;;;;;;;;4984881;28;20191;-67
2023/06/25 04:30:00;;;;;;;25.30;19.10;;;;;;;;;;4948408;28;20251;-67
2023/06/25 04:36:26;;;;;;;17.63;12.17;;;;;;;;;;4944882;28;20648;-66
2023/06/25 04:42:58;;;;;;;14.03;10.13;;;;;;;;;;4966050;28;20656;-66
2023/06/25 04:49:26;;;;;;;17.57;12.20;;;;;;;;;;4965397;28;20245;-66
2023/06/25 05:11:24;;;;;;;11.57;8.37;;;;;;;;;;4928476;29;20174;-69
2023/06/25 05:17:50;;;;;;;10.20;7.60;;;;;;;;;;4928178;29;20185;-71
2023/06/25 05:24:17;;;;;;;9.63;6.00;;;;;;;;;;4909786;29;20207;-68
2023/06/25 05:30:43;;;;;;;16.23;9.40;;;;;;;;;;4968722;28;20215;-70
2023/06/25 05:37:10;;;;;;;8.97;7.47;;;;;;;;;;4948517;28;20180;-70
2023/06/25 05:43:36;;;;;;;9.77;6.27;;;;;;;;;;4946036;28;20845;-68
2023/06/25 05:50:03;;;;;;;7.23;4.93;;;;;;;;;;4949573;29;20205;-68
2023/06/25 05:56:29;;;;;;;7.57;4.97;;;;;;;;;;4968376;28;20264;-68
2023/06/25 06:02:56;;;;;;;6.15;5.03;;;;;;;;;;4967787;28;20416;-69
2023/06/25 06:13:28;;;;;;;10.47;5.73;;;;;;;;;;4955555;28;20604;-68
2023/06/25 06:19:53;;;;;;;7.27;4.57;;;;;;;;;;4970522;28;20592;-66
2023/06/25 06:26:21;;;;;;;6.07;4.00;;;;;;;;;;4969927;28;20172;-68
2023/06/25 06:32:59;;;;;;;6.17;3.83;;;;;;;;;;4966838;28;20176;-66
2023/06/25 06:50:35;;;;;;;7.13;3.90;;;;;;;;;;4909627;29;20174;-66
2023/06/25 06:57:01;;;;;;;5.63;4.20;;;;;;;;;;4872104;29;20195;-67
2023/06/25 07:03:28;;;;;;;4.93;3.53;;;;;;;;;;4936781;28;20321;-67
2023/06/25 07:13:53;;;;;;;6.20;3.90;;;;;;;;;;5006127;28;20750;-66
2023/06/25 07:20:13;;;;;;;6.67;3.80;;;;;;;;;;5025404;28;20590;-65
2023/06/25 07:26:39;;;;;;;4.40;3.23;;;;;;;;;;5025521;28;20295;-65
2023/06/25 07:33:05;;;;;;;7.17;3.40;;;;;;;;;;5024831;28;20258;-65
2023/06/25 07:39:33;;;;;;;4.03;3.20;;;;;;;;;;4969077;28;20208;-65
2023/06/25 07:46:35;;;;;;;5.10;3.20;;;;;;;;;;4909436;29;20650;-66
2023/06/25 07:53:09;;;;;;;5.70;3.60;;;;;;;;;;4955800;28;20237;-66
2023/06/25 08:00:11;;;;;;;3.50;2.90;;;;;;;;;;4909020;29;20191;-66
2023/06/25 08:06:37;;;;;;;4.37;3.03;;;;;;;;;;4927828;29;20193;-66
2023/06/25 08:17:14;;;;;;;3.53;2.80;;;;;;;;;;4924825;29;20201;-66
2023/06/25 08:23:40;;;;;;;4.03;3.00;;;;;;;;;;4927308;29;20666;-66
2023/06/25 08:34:06;;;;;;;5.13;3.10;;;;;;;;;;4952457;28;20177;-66
2023/06/25 08:40:45;;;;;;;5.93;2.80;;;;;;;;;;4933250;29;20173;-65
2023/06/25 08:47:50;;;;;;;3.67;3.00;;;;;;;;;;4914309;29;20216;-65
2023/06/25 08:54:55;;;;;;;4.62;2.70;;;;;;;;;;4536515;29;10020822;-66
2023/06/25 09:01:15;;;;;;;3.67;2.93;;;;;;;;;;4875907;29;20190;-66
2023/06/25 09:07:44;;;;;;;3.13;2.63;;;;;;;;;;4852151;29;20211;-67
2023/06/25 09:18:21;;;;;;;3.03;2.73;;;;;;;;;;4928701;29;20224;-64
2023/06/25 09:24:48;;;;;;;3.03;2.67;;;;;;;;;;4923730;29;20211;-64
2023/06/25 09:31:15;;;;;;;3.60;2.90;;;;;;;;;;4912429;29;20225;-63
2023/06/25 09:42:12;;;;;;;3.33;2.87;;;;;;;;;;4930390;28;20317;-63
2023/06/25 09:53:52;;;;;;;4.10;3.10;;;;;;;;;;4940173;28;20806;-63
2023/06/25 10:23:22;;;;;;;5.43;3.40;;;;;;;;;;4965826;28;20215;-64
2023/06/25 10:29:50;;;;;;;5.30;4.03;;;;;;;;;;4963448;28;20233;-63
2023/06/25 10:36:23;;;;;;;4.67;3.70;;;;;;;;;;4949211;29;20237;-58
2023/06/25 10:42:49;;;;;;;6.67;4.13;;;;;;;;;;4950473;29;20270;-58
2023/06/25 10:49:19;;;;;;;4.93;4.17;;;;;;;;;;4949960;29;20221;-58
2023/06/25 10:55:46;;;;;;;7.13;4.83;;;;;;;;;;4949862;29;20169;-58
2023/06/25 11:02:12;;;;;;;5.97;4.00;;;;;;;;;;4950613;29;20240;-59
2023/06/25 11:21:09;;;;;;;6.43;4.70;;;;;;;;;;4947292;28;20226;-58
2023/06/25 11:27:29;;;;;;;6.07;4.20;;;;;;;;;;4947406;28;20231;-58
2023/06/25 11:37:59;;;;;;;5.83;4.53;;;;;;;;;;4918633;29;20234;-58
2023/06/25 11:48:24;;;;;;;6.43;4.43;;;;;;;;;;4936632;29;20305;-57
2023/06/25 11:54:44;;;;;;;5.60;3.90;;;;;;;;;;4946536;29;20180;-56
2023/06/25 12:05:39;;;;;;;5.00;4.27;;;;;;;;;;4950577;29;20221;-57
2023/06/25 12:12:05;;;;;;;6.37;4.20;;;;;;;;;;4950074;28;20186;-58
2023/06/25 12:23:14;;;;;;;4.13;3.70;;;;;;;;;;4931508;29;20190;-58
2023/06/25 12:29:40;;;;;;;6.27;4.20;;;;;;;;;;4931098;29;20237;-63
2023/06/25 12:36:06;;;;;;;4.07;3.63;;;;;;;;;;4942360;28;20276;-58
2023/06/25 12:42:33;;;;;;;5.00;4.00;;;;;;;;;;4952346;28;20241;-58
2023/06/25 12:49:00;;;;;;;5.63;3.43;;;;;;;;;;4951969;28;20233;-57
2023/06/25 12:55:26;;;;;;;4.50;3.13;;;;;;;;;;4952330;29;20161;-58
2023/06/25 13:01:56;;;;;;;5.07;3.30;;;;;;;;;;4952060;28;20243;-58
2023/06/25 13:08:23;;;;;;;4.33;3.50;;;;;;;;;;4932961;29;20270;-58
2023/06/25 13:18:54;;;;;;;4.90;3.37;;;;;;;;;;4971386;28;20169;-58
2023/06/25 13:25:20;;;;;;;4.63;3.40;;;;;;;;;;4971212;28;20175;-57
2023/06/25 13:31:46;;;;;;;7.07;3.87;;;;;;;;;;4970674;28;20321;-59
2023/06/25 13:38:37;;;;;;;4.13;3.63;;;;;;;;;;4971059;28;20248;-57
2023/06/25 13:49:02;;;;;;;5.27;4.03;;;;;;;;;;4970154;28;20937;-57
2023/06/25 13:55:22;;;;;;;5.23;3.80;;;;;;;;;;4970342;28;20305;-55
2023/06/25 14:01:48;;;;;;;4.50;4.10;;;;;;;;;;4970406;28;20208;-57
2023/06/25 14:08:50;;;;;;;5.20;3.70;;;;;;;;;;4891514;29;20789;-57
2023/06/25 14:19:23;;;;;;;4.73;3.80;;;;;;;;;;4928699;29;20614;-57
2023/06/25 14:25:49;;;;;;;5.20;3.83;;;;;;;;;;4928828;29;20234;-58
2023/06/25 14:32:15;;;;;;;4.57;4.00;;;;;;;;;;4929254;29;20177;-55
2023/06/25 14:38:41;;;;;;;5.47;4.00;;;;;;;;;;4969500;28;20195;-55
2023/06/25 14:45:07;;;;;;;14.63;4.90;;;;;;;;;;5005812;28;20171;-55
2023/06/25 14:51:33;;;;;;;6.17;4.13;;;;;;;;;;5025724;28;20275;-56
2023/06/25 15:06:36;;;;;;;4.83;2.90;;;;;;;;;;4966870;28;20177;-58
2023/06/25 15:13:03;;;;;;;3.93;2.87;;;;;;;;;;4893483;29;20196;-64
2023/06/25 15:23:41;;;;;;;5.37;3.20;;;;;;;;;;4909012;29;20184;-65
2023/06/25 15:30:43;;;;;;;7.90;5.07;;;;;;;;;;4908657;29;20782;-64
2023/06/25 15:37:20;;;;;;;4.27;2.47;;;;;;;;;;4927404;29;20190;-64
2023/06/25 15:43:46;;;;;;;3.73;2.67;;;;;;;;;;4929386;29;20176;-65
2023/06/25 15:54:42;;;;;;;3.83;2.50;;;;;;;;;;4833065;29;21043;-65
2023/06/25 16:05:07;;;;;;;6.10;4.40;;;;;;;;;;4821388;29;20467;-65
2023/06/25 16:15:35;;;;;;;5.90;2.57;;;;;;;;;;4803929;29;20271;-64
2023/06/25 16:29:47;;;;;;;4.53;2.40;;;;;;;;;;4926967;29;20958;-64
2023/06/25 16:36:13;;;;;;;2.97;2.50;;;;;;;;;;4947723;29;20211;-64
2023/06/25 16:42:39;;;;;;;3.53;2.67;;;;;;;;;;4947230;29;20212;-63
2023/06/25 16:49:05;;;;;;;5.37;2.47;;;;;;;;;;4924784;29;20219;-64
2023/06/25 17:06:26;;;;;;;3.70;2.80;;;;;;;;;;4912575;29;20190;-65
2023/06/25 17:13:28;;;;;;;7.53;3.20;;;;;;;;;;4912081;29;21047;-64
2023/06/25 18:01:25;;;;;;;7.03;2.97;;;;;;;;;;4952183;28;20585;-65
2023/06/25 18:07:51;;;;;;;4.03;2.43;;;;;;;;;;4952274;28;20181;-64
2023/06/25 18:14:17;;;;;;;4.93;2.53;;;;;;;;;;4967065;28;20212;-67
2023/06/25 18:24:45;;;;;;;5.30;2.50;;;;;;;;;;4951663;28;20205;-63
2023/06/25 18:31:23;;;;;;;6.70;2.67;;;;;;;;;;4950008;28;20201;-63
2023/06/25 18:42:55;;;;;;;18.47;9.97;;;;;;;;;;4937674;29;20244;-65
2023/06/25 18:49:22;;;;;;;12.50;6.73;;;;;;;;;;4946650;28;20963;-67
2023/06/25 18:55:49;;;;;;;9.07;4.20;;;;;;;;;;4968710;28;20199;-64
2023/06/25 19:02:15;;;;;;;14.23;5.80;;;;;;;;;;4969638;28;20216;-67
2023/06/25 19:08:41;;;;;;;20.00;5.50;;;;;;;;;;4969242;28;20183;-64
2023/06/25 19:23:43;;;;;;;28.80;7.40;;;;;;;;;;4908588;29;20239;-64
2023/06/25 19:30:09;;;;;;;21.60;5.63;;;;;;;;;;4890309;29;20343;-64
2023/06/25 19:40:34;;;;;;;8.90;4.00;;;;;;;;;;4908966;29;20223;-64
2023/06/25 19:47:00;;;;;;;17.07;5.40;;;;;;;;;;4949747;29;20197;-64
2023/06/25 19:53:38;;;;;;;16.03;4.90;;;;;;;;;;4968732;28;20668;-64
2023/06/25 20:00:04;;;;;;;14.63;5.00;;;;;;;;;;4968186;28;20268;-64
2023/06/25 20:06:34;;;;;;;21.33;5.43;;;;;;;;;;4968650;28;20259;-64
2023/06/25 20:13:00;;;;;;;29.73;5.70;;;;;;;;;;4948854;28;20232;-64
2023/06/25 20:27:36;;;;;;;17.93;5.67;;;;;;;;;;4933992;29;20236;-63
2023/06/25 20:34:03;;;;;;;20.53;5.37;;;;;;;;;;4952052;29;20258;-63
2023/06/25 20:40:30;;;;;;;18.97;6.00;;;;;;;;;;4952882;29;20264;-65
2023/06/25 20:46:56;;;;;;;19.30;5.77;;;;;;;;;;4933840;29;20182;-65
2023/06/25 20:53:22;;;;;;;20.57;5.23;;;;;;;;;;4952298;29;20178;-65
2023/06/25 21:00:21;;;;;;;19.77;5.20;;;;;;;;;;4855751;29;20180;-64
2023/06/25 21:10:48;;;;;;;13.13;5.77;;;;;;;;;;4886017;29;20275;-64
2023/06/25 21:17:15;;;;;;;12.97;5.53;;;;;;;;;;4892948;29;20183;-63
2023/06/25 21:27:57;;;;;;;17.70;5.73;;;;;;;;;;4952044;29;20216;-63
2023/06/25 21:34:23;;;;;;;37.27;6.80;;;;;;;;;;4951184;29;20290;-63
2023/06/25 21:41:26;;;;;;;36.27;6.70;;;;;;;;;;4932724;29;20189;-63
2023/06/25 21:59:44;;;;;;;35.33;8.47;;;;;;;;;;4929321;29;20545;-63
2023/06/25 22:06:12;;;;;;;29.60;6.17;;;;;;;;;;4951200;29;20174;-64
2023/06/25 22:35:57;;;;;;;16.03;6.27;;;;;;;;;;4891475;29;20327;-64
2023/06/25 22:42:22;;;;;;;19.90;6.60;;;;;;;;;;4909655;29;21028;-64
2023/06/25 22:48:48;;;;;;;15.90;6.27;;;;;;;;;;4969536;28;20601;-63
2023/06/25 22:55:15;;;;;;;14.33;6.13;;;;;;;;;;4969485;28;20256;-63
2023/06/25 23:01:41;;;;;;;14.10;6.17;;;;;;;;;;4969500;28;20184;-63
2023/06/25 23:08:32;;;;;;;16.83;7.77;;;;;;;;;;4969758;28;20215;-62
2023/06/25 23:14:59;;;;;;;17.00;7.37;;;;;;;;;;4969195;28;20662;-70
2023/06/25 23:30:16;;;;;;;13.83;7.47;;;;;;;;;;4883056;29;20346;-70
2023/06/25 23:36:42;;;;;;;17.17;8.07;;;;;;;;;;4888310;29;20175;-70
2023/06/25 23:51:26;;;;;;;12.23;6.67;;;;;;;;;;4908729;29;20197;-70
